createdAt,value
2019-04-20T00:00:00.781Z,103264.02
2019-04-20T00:02:25.791Z,103247.56
2019-04-20T00:04:55.059Z,103247.56
2019-04-20T00:07:29.470Z,103257.45
2019-04-20T00:10:02.598Z,103257.45
2019-04-20T00:12:36.784Z,103271.32
2019-04-20T00:14:56.599Z,103271.32
2019-04-20T00:17:26.695Z,103268.05
2019-04-20T00:19:57.787Z,103268.05
2019-04-20T00:22:46.930Z,103261.95
2019-04-20T00:25:41.721Z,103257.00
2019-04-20T00:28:22.450Z,103257.00
2019-04-20T00:30:53.355Z,103255.14
2019-04-20T00:33:14.729Z,103250.98
2019-04-20T00:35:35.900Z,103250.98
2019-04-20T00:38:05.641Z,103248.58
2019-04-20T00:40:35.754Z,103248.58
2019-04-20T00:43:06.559Z,103254.28
2019-04-20T00:45:41.398Z,103251.56
2019-04-20T00:48:19.993Z,103248.59
2019-04-20T00:50:49.116Z,103242.84
2019-04-20T00:53:17.053Z,103242.84
2019-04-20T00:55:38.098Z,103241.46
2019-04-20T00:58:17.382Z,103241.46
2019-04-20T01:01:04.059Z,103237.06
2019-04-20T01:03:20.933Z,103236.02
2019-04-20T01:06:22.241Z,103231.83
2019-04-20T01:08:40.209Z,103233.48
2019-04-20T01:11:10.205Z,103239.42
2019-04-20T01:13:45.949Z,103239.42
2019-04-20T01:16:21.731Z,103225.86
2019-04-20T01:18:43.748Z,103225.86
2019-04-20T01:21:16.675Z,103237.38
2019-04-20T01:23:50.795Z,103231.60
2019-04-20T01:26:17.187Z,103242.59
2019-04-20T01:28:57.640Z,103240.02
2019-04-20T01:31:25.424Z,103245.30
2019-04-20T01:33:56.323Z,103245.30
2019-04-20T01:36:37.113Z,103238.50
2019-04-20T01:39:02.798Z,103239.98
2019-04-20T01:41:22.168Z,103239.98
2019-04-20T01:43:52.272Z,103242.14
2019-04-20T01:46:24.879Z,103241.70
2019-04-20T01:48:52.642Z,103247.10
2019-04-20T01:51:27.173Z,103247.05
2019-04-20T01:54:11.746Z,103245.03
2019-04-20T01:56:40.064Z,103240.27
2019-04-20T01:59:20.030Z,103240.27
2019-04-20T02:01:59.433Z,103247.13
2019-04-20T02:04:40.950Z,103246.02
2019-04-20T02:07:09.147Z,103239.79
2019-04-20T02:09:45.616Z,103238.27
2019-04-20T02:12:15.464Z,103238.27
2019-04-20T02:14:46.242Z,103239.82
2019-04-20T02:17:22.737Z,103242.48
2019-04-20T02:20:02.314Z,103239.82
2019-04-20T02:22:30.311Z,103238.69
2019-04-20T02:24:42.706Z,103238.69
2019-04-20T02:27:12.566Z,103232.95
2019-04-20T02:30:06.463Z,103232.95
2019-04-20T02:32:53.278Z,103233.00
2019-04-20T02:35:34.405Z,103230.09
2019-04-20T02:38:26.095Z,103228.20
2019-04-20T02:40:46.886Z,103224.45
2019-04-20T02:43:25.346Z,103228.47
2019-04-20T02:45:39.892Z,103228.47
2019-04-20T02:48:08.138Z,103224.18
2019-04-20T02:50:44.556Z,103216.57
2019-04-20T02:58:07.041Z,103211.41
2019-04-20T03:00:35.222Z,103211.41
2019-04-20T03:02:52.883Z,103208.07
2019-04-20T03:05:28.321Z,103206.06
2019-04-20T03:08:02.779Z,103206.06
2019-04-20T03:10:44.634Z,103207.39
2019-04-20T03:13:08.593Z,103208.85
2019-04-20T03:15:37.709Z,103215.09
2019-04-20T03:18:08.814Z,103216.17
2019-04-20T03:20:36.824Z,103214.49
2019-04-20T03:25:55.962Z,103208.85
2019-04-20T03:28:31.009Z,103204.61
2019-04-20T03:34:00.840Z,103204.00
2019-04-20T03:36:19.639Z,103203.78
2019-04-20T03:38:38.461Z,103207.26
2019-04-20T03:41:04.019Z,103197.72
2019-04-20T03:43:20.187Z,103205.36
2019-04-20T03:45:56.158Z,103192.71
2019-04-20T03:48:39.357Z,103195.05
2019-04-20T03:51:16.334Z,103203.03
2019-04-20T03:53:39.252Z,103199.85
2019-04-20T03:56:34.636Z,103198.03
2019-04-20T03:59:11.899Z,103198.16
2019-04-20T04:02:24.609Z,103198.23
2019-04-20T04:04:54.746Z,103200.79
2019-04-20T04:07:18.275Z,103203.73
2019-04-20T04:09:56.165Z,103204.23
2019-04-20T04:12:46.795Z,103201.72
2019-04-20T04:15:14.894Z,103200.24
2019-04-20T04:17:45.579Z,103203.48
2019-04-20T04:20:17.803Z,103205.73
2019-04-20T04:23:07.936Z,103205.20
2019-04-20T04:25:25.038Z,103206.09
2019-04-20T04:28:03.899Z,103214.05
2019-04-20T04:30:33.065Z,103210.72
2019-04-20T04:33:37.895Z,103211.38
2019-04-20T04:35:31.362Z,103210.99
2019-04-20T04:38:05.804Z,103211.91
2019-04-20T04:40:49.862Z,103208.05
2019-04-20T04:43:10.241Z,103211.59
2019-04-20T04:45:26.557Z,103213.77
2019-04-20T04:47:53.676Z,103223.45
2019-04-20T04:50:26.222Z,103215.92
2019-04-20T04:53:04.117Z,103217.88
2019-04-20T04:55:36.311Z,103216.54
2019-04-20T04:57:55.773Z,103216.89
2019-04-20T05:00:28.229Z,103217.98
2019-04-20T05:03:02.020Z,103217.98
2019-04-20T05:05:56.135Z,103211.11
2019-04-20T05:08:17.892Z,103211.11
2019-04-20T05:10:39.281Z,103216.50
2019-04-20T05:13:09.138Z,103214.98
2019-04-20T05:15:57.412Z,103218.78
2019-04-20T05:18:34.730Z,103221.16
2019-04-20T05:21:04.404Z,103215.87
2019-04-20T05:23:47.890Z,103225.12
2019-04-20T05:26:57.484Z,103225.02
2019-04-20T05:29:08.533Z,103216.52
2019-04-20T05:31:40.417Z,103222.15
2019-04-20T05:34:29.523Z,103223.93
2019-04-20T05:36:50.329Z,103223.14
2019-04-20T05:39:29.796Z,103230.74
2019-04-20T05:41:51.517Z,103228.48
2019-04-20T05:44:26.283Z,103228.48
2019-04-20T05:47:00.941Z,103235.34
2019-04-20T05:49:31.674Z,103235.34
2019-04-20T05:52:10.447Z,103222.69
2019-04-20T05:54:40.364Z,103227.31
2019-04-20T05:57:07.817Z,103227.31
2019-04-20T05:59:45.413Z,103208.05
2019-04-20T06:02:09.719Z,103230.96
2019-04-20T06:04:55.223Z,103230.96
2019-04-20T06:07:09.458Z,103221.62
2019-04-20T06:09:42.953Z,103221.62
2019-04-20T06:14:55.896Z,103221.31
2019-04-20T06:17:40.090Z,103221.45
2019-04-20T06:20:12.631Z,103219.58
2019-04-20T06:22:42.780Z,103216.28
2019-04-20T06:27:51.192Z,103212.66
2019-04-20T06:30:13.622Z,103218.05
2019-04-20T06:36:17.233Z,103220.97
2019-04-20T06:38:49.699Z,103220.66
2019-04-20T06:41:06.311Z,103220.66
2019-04-20T06:43:33.336Z,103215.76
2019-04-20T06:46:04.321Z,103214.70
2019-04-20T06:48:35.317Z,103217.01
2019-04-20T06:50:57.121Z,103209.08
2019-04-20T06:53:45.363Z,103211.75
2019-04-20T06:56:15.694Z,103215.94
2019-04-20T07:01:11.007Z,103212.16
2019-04-20T07:04:10.754Z,103210.27
2019-04-20T07:06:30.720Z,103214.79
2019-04-20T07:11:18.531Z,103209.50
2019-04-20T07:13:35.914Z,103210.31
2019-04-20T07:16:21.580Z,103206.61
2019-04-20T07:19:09.443Z,103207.30
2019-04-20T07:22:06.004Z,103204.43
2019-04-20T07:24:25.160Z,103201.04
2019-04-20T07:26:55.847Z,103207.81
2019-04-20T07:29:31.942Z,103210.86
2019-04-20T07:31:50.068Z,103205.91
2019-04-20T07:34:23.370Z,103203.72
2019-04-20T07:37:21.647Z,103199.44
2019-04-20T07:39:27.942Z,103204.17
2019-04-20T07:42:04.522Z,103206.20
2019-04-20T07:44:34.767Z,103205.95
2019-04-20T07:47:11.738Z,103206.67
2019-04-20T07:49:32.934Z,103201.41
2019-04-20T07:51:43.863Z,103207.47
2019-04-20T07:54:40.132Z,103210.28
2019-04-20T07:57:01.831Z,103206.07
2019-04-20T07:59:23.366Z,103200.94
2019-04-20T08:02:39.076Z,103204.57
2019-04-20T08:05:21.912Z,103204.13
2019-04-20T08:07:45.710Z,103195.84
2019-04-20T08:10:12.215Z,103203.52
2019-04-20T08:13:02.375Z,103193.45
2019-04-20T08:15:44.524Z,103202.45
2019-04-20T08:18:17.998Z,103199.78
2019-04-20T08:20:25.736Z,103193.02
2019-04-20T08:22:58.638Z,103193.34
2019-04-20T08:25:23.520Z,103189.41
2019-04-20T08:28:19.291Z,103188.19
2019-04-20T08:31:15.309Z,103186.17
2019-04-20T08:34:04.832Z,103189.20
2019-04-20T08:36:22.822Z,103189.98
2019-04-20T08:39:12.727Z,103182.84
2019-04-20T08:41:17.957Z,103180.89
2019-04-20T08:44:06.440Z,103181.53
2019-04-20T08:46:30.925Z,103174.86
2019-04-20T08:48:56.707Z,103177.14
2019-04-20T08:51:25.964Z,103186.02
2019-04-20T08:53:53.331Z,103181.42
2019-04-20T08:56:19.751Z,103172.92
2019-04-20T08:58:37.023Z,103176.59
2019-04-20T09:01:08.623Z,103176.54
2019-04-20T09:03:46.362Z,103177.95
2019-04-20T09:06:23.811Z,103180.88
2019-04-20T09:08:50.325Z,103176.19
2019-04-20T09:11:24.486Z,103170.47
2019-04-20T09:13:46.186Z,103175.02
2019-04-20T09:16:10.856Z,103169.10
2019-04-20T09:18:50.551Z,103169.39
2019-04-20T09:21:24.348Z,103161.01
2019-04-20T09:24:10.785Z,103158.23
2019-04-20T09:26:37.588Z,103147.69
2019-04-20T09:29:12.560Z,103151.13
2019-04-20T09:31:44.823Z,103146.35
2019-04-20T09:34:42.389Z,103142.19
2019-04-20T09:37:29.655Z,103141.01
2019-04-20T09:40:21.645Z,103146.89
2019-04-20T09:42:50.663Z,103141.98
2019-04-20T09:45:35.007Z,103141.46
2019-04-20T09:47:56.454Z,103132.78
2019-04-20T09:50:45.014Z,103133.22
2019-04-20T09:53:10.182Z,103129.20
2019-04-20T09:55:38.173Z,103134.15
2019-04-20T09:58:09.534Z,103133.27
2019-04-20T10:00:56.832Z,103128.70
2019-04-20T10:03:11.253Z,103126.14
2019-04-20T10:05:41.194Z,103125.83
2019-04-20T10:08:11.390Z,103124.81
2019-04-20T10:10:42.635Z,103122.39
2019-04-20T10:13:11.254Z,103119.02
2019-04-20T10:15:41.569Z,103122.14
2019-04-20T10:18:12.029Z,103117.40
2019-04-20T10:20:43.435Z,103117.87
2019-04-20T10:23:12.469Z,103115.14
2019-04-20T10:25:42.509Z,103118.98
2019-04-20T10:28:11.818Z,103111.67
2019-04-20T10:30:40.871Z,103105.97
2019-04-20T10:33:10.011Z,103101.13
2019-04-20T10:35:39.487Z,103100.25
2019-04-20T10:38:13.747Z,103102.44
2019-04-20T10:40:54.041Z,103094.93
2019-04-20T10:43:14.196Z,103094.91
2019-04-20T10:45:44.748Z,103091.42
2019-04-20T10:48:15.137Z,103096.65
2019-04-20T10:50:45.084Z,103093.61
2019-04-20T10:53:14.576Z,103090.13
2019-04-20T10:55:43.468Z,103088.77
2019-04-20T10:58:13.604Z,103086.09
2019-04-20T11:00:44.313Z,103083.94
2019-04-20T11:03:15.550Z,103077.73
2019-04-20T11:05:45.062Z,103081.69
2019-04-20T11:08:14.854Z,103078.30
2019-04-20T11:10:55.585Z,103075.10
2019-04-20T11:13:15.234Z,103072.06
2019-04-20T11:15:46.557Z,103072.50
2019-04-20T11:18:15.533Z,103064.57
2019-04-20T11:20:45.603Z,103067.58
2019-04-20T11:23:15.842Z,103067.66
2019-04-20T11:25:46.292Z,103066.77
2019-04-20T11:28:16.614Z,103066.13
2019-04-20T11:30:46.284Z,103062.34
2019-04-20T11:33:16.098Z,103061.20
2019-04-20T11:35:46.477Z,103059.88
2019-04-20T11:38:17.267Z,103053.94
2019-04-20T11:40:47.037Z,103052.13
2019-04-20T11:43:17.792Z,103044.20
2019-04-20T11:45:46.896Z,103047.22
2019-04-20T11:48:15.936Z,103041.39
2019-04-20T11:50:45.470Z,103038.75
2019-04-20T11:53:15.306Z,103037.08
2019-04-20T11:55:44.647Z,103030.91
2019-04-20T11:58:14.216Z,103039.93
2019-04-20T12:00:56.288Z,103030.67
2019-04-20T12:03:31.095Z,103024.47
2019-04-20T12:05:57.909Z,103027.44
2019-04-20T12:08:24.967Z,103017.55
2019-04-20T12:10:57.744Z,103019.86
2019-04-20T12:13:24.814Z,103020.01
2019-04-20T12:15:53.870Z,103012.87
2019-04-20T12:18:23.411Z,103010.38
2019-04-20T12:20:52.596Z,103005.15
2019-04-20T12:23:22.342Z,103005.92
2019-04-20T12:25:52.368Z,103006.56
2019-04-20T12:28:21.975Z,103006.23
2019-04-20T12:30:51.503Z,103010.74
2019-04-20T12:33:20.609Z,102998.20
2019-04-20T12:35:50.098Z,102998.67
2019-04-20T12:38:19.251Z,102989.34
2019-04-20T12:40:48.456Z,102987.85
2019-04-20T12:43:17.608Z,102990.73
2019-04-20T12:45:47.697Z,102983.59
2019-04-20T12:48:17.635Z,102976.56
2019-04-20T12:50:47.783Z,102977.25
2019-04-20T12:53:17.122Z,102971.44
2019-04-20T12:55:46.526Z,102977.03
2019-04-20T12:58:16.620Z,102981.11
2019-04-20T13:00:49.669Z,102976.95
2019-04-20T13:03:19.333Z,102984.09
2019-04-20T13:05:50.050Z,102974.57
2019-04-20T13:08:28.611Z,102978.43
2019-04-20T13:10:58.364Z,102978.96
2019-04-20T13:13:50.326Z,102970.88
2019-04-20T13:16:26.117Z,102969.56
2019-04-20T13:19:03.547Z,102962.50
2019-04-20T13:21:32.725Z,102968.95
2019-04-20T13:24:03.093Z,102970.26
2019-04-20T13:26:33.189Z,102964.77
2019-04-20T13:29:02.558Z,102973.34
2019-04-20T13:31:31.707Z,102966.67
2019-04-20T13:34:01.497Z,102967.52
2019-04-20T13:36:30.649Z,102961.13
2019-04-20T13:38:59.656Z,102962.30
2019-04-20T13:41:29.809Z,102962.26
2019-04-20T13:44:01.232Z,102961.48
2019-04-20T13:46:29.284Z,102955.08
2019-04-20T13:48:58.015Z,102957.41
2019-04-20T13:51:27.003Z,102949.67
2019-04-20T13:53:56.976Z,102939.27
2019-04-20T13:56:28.006Z,102937.22
2019-04-20T13:59:10.061Z,102943.84
2019-04-20T14:02:08.515Z,102936.95
2019-04-20T14:04:42.455Z,102926.75
2019-04-20T14:07:15.028Z,102927.19
2019-04-20T14:09:41.776Z,102922.25
2019-04-20T14:12:21.994Z,102926.66
2019-04-20T14:14:41.407Z,102925.73
2019-04-20T14:17:10.801Z,102909.61
2019-04-20T14:19:39.515Z,102908.46
2019-04-20T14:22:08.483Z,102900.52
2019-04-20T14:24:37.477Z,102897.49
2019-04-20T14:27:06.634Z,102893.76
2019-04-20T14:29:36.997Z,102891.27
2019-04-20T14:32:07.727Z,102895.41
2019-04-20T14:34:36.635Z,102889.22
2019-04-20T14:37:06.900Z,102891.05
2019-04-20T14:39:36.410Z,102900.35
2019-04-20T14:42:06.627Z,102894.89
2019-04-20T14:44:37.378Z,102892.91
2019-04-20T14:47:06.187Z,102882.69
2019-04-20T14:49:35.085Z,102883.72
2019-04-20T14:52:04.540Z,102881.01
2019-04-20T14:54:35.093Z,102883.70
2019-04-20T14:57:05.424Z,102877.64
2019-04-20T14:59:37.941Z,102879.73
2019-04-20T15:02:12.694Z,102878.06
2019-04-20T15:04:43.124Z,102869.84
2019-04-20T15:07:12.992Z,102873.23
2019-04-20T15:09:42.828Z,102863.52
2019-04-20T15:12:12.934Z,102863.83
2019-04-20T15:14:42.711Z,102867.53
2019-04-20T15:17:15.176Z,102862.53
2019-04-20T15:20:07.463Z,102865.48
2019-04-20T15:22:43.389Z,102857.47
2019-04-20T15:25:13.731Z,102865.16
2019-04-20T15:27:45.979Z,102851.50
2019-04-20T15:30:14.155Z,102854.28
2019-04-20T15:32:43.277Z,102856.80
2019-04-20T15:35:14.038Z,102852.72
2019-04-20T15:37:44.928Z,102849.08
2019-04-20T15:40:15.107Z,102850.06
2019-04-20T15:42:56.053Z,102848.48
2019-04-20T15:45:16.441Z,102836.92
2019-04-20T15:47:45.838Z,102835.34
2019-04-20T15:50:15.985Z,102838.34
2019-04-20T15:52:51.023Z,102837.38
2019-04-20T15:55:22.673Z,102835.83
2019-04-20T15:57:46.633Z,102836.61
2019-04-20T16:00:16.315Z,102838.52
2019-04-20T16:02:49.476Z,102828.18
2019-04-20T16:05:47.177Z,102828.83
2019-04-20T16:08:36.740Z,102831.89
2019-04-20T16:11:07.031Z,102831.20
2019-04-20T16:13:40.270Z,102827.19
2019-04-20T16:16:07.907Z,102828.18
2019-04-20T16:18:37.213Z,102827.88
2019-04-20T16:21:13.360Z,102825.72
2019-04-20T16:23:48.525Z,102830.95
2019-04-20T16:26:29.551Z,102826.95
2019-04-20T16:28:59.709Z,102827.58
2019-04-20T16:31:28.895Z,102824.22
2019-04-20T16:33:58.799Z,102827.91
2019-04-20T16:36:28.498Z,102828.03
2019-04-20T16:38:57.675Z,102825.02
2019-04-20T16:41:26.494Z,102822.13
2019-04-20T16:43:55.452Z,102809.83
2019-04-20T16:46:25.824Z,102813.75
2019-04-20T16:48:55.133Z,102812.05
2019-04-20T16:51:25.117Z,102814.35
2019-04-20T16:53:54.423Z,102808.34
2019-04-20T16:56:24.437Z,102801.28
2019-04-20T16:58:59.370Z,102818.57
2019-04-20T17:01:23.693Z,102813.03
2019-04-20T17:04:01.892Z,102812.08
2019-04-20T17:06:24.233Z,102813.03
2019-04-20T17:08:54.527Z,102816.81
2019-04-20T17:11:23.853Z,102816.98
2019-04-20T17:13:56.207Z,102813.67
2019-04-20T17:16:23.841Z,102814.97
2019-04-20T17:18:53.043Z,102821.50
2019-04-20T17:21:25.848Z,102819.81
2019-04-20T17:23:53.243Z,102818.09
2019-04-20T17:26:32.786Z,102815.47
2019-04-20T17:29:08.257Z,102811.08
2019-04-20T17:31:53.757Z,102814.62
2019-04-20T17:34:41.518Z,102803.63
2019-04-20T17:36:54.635Z,102805.38
2019-04-20T17:39:31.723Z,102810.22
2019-04-20T17:42:13.251Z,102813.69
2019-04-20T17:44:42.623Z,102816.30
2019-04-20T17:47:13.609Z,102813.17
2019-04-20T17:49:41.233Z,102818.67
2019-04-20T17:52:22.308Z,102822.45
2019-04-20T17:54:35.625Z,102817.02
2019-04-20T17:57:04.705Z,102810.36
2019-04-20T17:59:34.629Z,102815.38
2019-04-20T18:02:45.967Z,102814.72
2019-04-20T18:05:28.407Z,102815.73
2019-04-20T18:07:56.564Z,102813.32
2019-04-20T18:10:25.967Z,102820.58
2019-04-20T18:12:44.538Z,102813.63
2019-04-20T18:15:31.454Z,102817.09
2019-04-20T18:18:28.293Z,102821.90
2019-04-20T18:20:54.901Z,102819.72
2019-04-20T18:23:33.322Z,102818.25
2019-04-20T18:26:21.253Z,102815.79
2019-04-20T18:28:40.158Z,102826.07
2019-04-20T18:31:11.224Z,102816.45
2019-04-20T18:33:42.418Z,102816.66
2019-04-20T18:36:13.276Z,102821.88
2019-04-20T18:38:49.893Z,102820.84
2019-04-20T18:41:20.951Z,102824.20
2019-04-20T18:43:48.835Z,102829.16
2019-04-20T18:46:28.082Z,102829.65
2019-04-20T18:49:01.086Z,102830.25
2019-04-20T18:51:15.398Z,102831.29
2019-04-20T18:53:48.261Z,102834.42
2019-04-20T18:56:17.012Z,102840.37
2019-04-20T18:58:46.937Z,102842.67
2019-04-20T19:01:17.050Z,102840.83
2019-04-20T19:03:47.714Z,102839.25
2019-04-20T19:06:16.372Z,102840.30
2019-04-20T19:08:49.974Z,102845.09
2019-04-20T19:11:19.799Z,102845.86
2019-04-20T19:13:56.437Z,102845.14
2019-04-20T19:16:42.038Z,102844.83
2019-04-20T19:19:22.050Z,102847.17
2019-04-20T19:21:41.015Z,102845.75
2019-04-20T19:24:13.224Z,102849.05
2019-04-20T19:26:47.664Z,102844.36
2019-04-20T19:29:19.083Z,102849.91
2019-04-20T19:31:57.353Z,102847.47
2019-04-20T19:34:29.580Z,102852.95
2019-04-20T19:36:58.027Z,102844.83
2019-04-20T19:39:26.016Z,102846.36
2019-04-20T19:41:51.652Z,102849.47
2019-04-20T19:44:22.613Z,102847.53
2019-04-20T19:47:06.497Z,102844.17
2019-04-20T19:49:26.784Z,102843.48
2019-04-20T19:52:20.223Z,102839.19
2019-04-20T19:54:35.523Z,102837.64
2019-04-20T19:57:01.334Z,102836.13
2019-04-20T19:59:26.087Z,102835.23
2019-04-20T20:01:47.691Z,102835.05
2019-04-20T20:04:17.567Z,102836.37
2019-04-20T20:06:51.799Z,102836.19
2019-04-20T20:09:18.299Z,102831.48
2019-04-20T20:11:49.522Z,102829.34
2019-04-20T20:14:25.549Z,102831.54
2019-04-20T20:17:05.393Z,102827.51
2019-04-20T20:19:32.504Z,102825.98
2019-04-20T20:22:04.500Z,102818.31
2019-04-20T20:24:21.479Z,102822.22
2019-04-20T20:26:57.886Z,102819.56
2019-04-20T20:29:30.528Z,102823.20
2019-04-20T20:32:08.490Z,102824.81
2019-04-20T20:34:30.946Z,102822.48
2019-04-20T20:36:59.810Z,102818.27
2019-04-20T20:39:29.598Z,102822.26
2019-04-20T20:42:10.093Z,102826.05
2019-04-20T20:44:38.012Z,102817.06
2019-04-20T20:47:07.126Z,102818.49
2019-04-20T20:49:48.781Z,102820.03
2019-04-20T20:52:20.261Z,102815.09
2019-04-20T20:54:41.265Z,102816.52
2019-04-20T20:57:05.673Z,102810.38
2019-04-20T20:59:40.247Z,102807.95
2019-04-20T21:02:06.461Z,102813.31
2019-04-20T21:04:30.074Z,102809.69
2019-04-20T21:07:00.494Z,102804.02
2019-04-20T21:09:29.696Z,102801.64
2019-04-20T21:12:04.308Z,102799.94
2019-04-20T21:14:32.934Z,102797.94
2019-04-20T21:17:05.422Z,102803.25
2019-04-20T21:19:50.205Z,102798.98
2019-04-20T21:22:08.426Z,102798.27
2019-04-20T21:24:35.804Z,102802.94
2019-04-20T21:27:07.946Z,102802.21
2019-04-20T21:29:43.104Z,102804.80
2019-04-20T21:32:12.085Z,102804.75
2019-04-20T21:34:36.446Z,102801.06
2019-04-20T21:37:10.617Z,102802.95
2019-04-20T21:39:44.147Z,102799.41
2019-04-20T21:42:12.482Z,102801.79
2019-04-20T21:44:41.408Z,102796.87
2019-04-20T21:47:09.173Z,102794.34
2019-04-20T21:49:49.732Z,102798.30
2019-04-20T21:52:20.828Z,102797.29
2019-04-20T21:54:40.102Z,102793.20
2019-04-20T21:57:11.511Z,102789.97
2019-04-20T21:59:44.624Z,102796.63
2019-04-20T22:02:18.590Z,102792.63
2019-04-20T22:04:41.150Z,102792.91
2019-04-20T22:07:10.409Z,102783.88
2019-04-20T22:09:45.304Z,102784.95
2019-04-20T22:12:09.907Z,102787.95
2019-04-20T22:14:39.864Z,102783.50
2019-04-20T22:17:09.802Z,102781.92
2019-04-20T22:19:45.893Z,102780.87
2019-04-20T22:22:18.461Z,102780.22
2019-04-20T22:24:56.418Z,102785.87
2019-04-20T22:27:20.125Z,102782.61
2019-04-20T22:29:41.825Z,102786.19
2019-04-20T22:32:14.854Z,102781.66
2019-04-20T22:34:41.809Z,102780.05
2019-04-20T22:37:15.319Z,102783.67
2019-04-20T22:39:50.411Z,102783.67
2019-04-20T22:42:17.912Z,102786.83
2019-04-20T22:44:47.902Z,102786.48
2019-04-20T22:47:23.084Z,102774.94
2019-04-20T22:50:11.864Z,102774.94
2019-04-20T22:52:34.773Z,102772.16
2019-04-20T22:55:10.044Z,102768.58
2019-04-20T22:57:36.305Z,102768.58
2019-04-20T23:00:01.890Z,102769.36
2019-04-20T23:02:22.967Z,102769.36
2019-04-20T23:04:50.931Z,102767.39
2019-04-20T23:07:20.848Z,102765.34
2019-04-20T23:09:54.365Z,102750.97
2019-04-20T23:12:23.363Z,102750.97
2019-04-20T23:14:52.324Z,102757.87
2019-04-20T23:17:27.223Z,102751.87
2019-04-20T23:19:57.331Z,102752.00
2019-04-20T23:22:23.099Z,102749.22
2019-04-20T23:24:53.316Z,102747.63
2019-04-20T23:27:27.255Z,102743.51
2019-04-20T23:29:53.219Z,102733.70
2019-04-20T23:32:26.128Z,102733.70
2019-04-20T23:34:59.778Z,102731.80
2019-04-20T23:37:29.899Z,102731.39
2019-04-20T23:39:54.816Z,102735.44
2019-04-20T23:42:34.901Z,102735.44
2019-04-20T23:45:09.462Z,102724.84
2019-04-20T23:47:46.460Z,102732.64
2019-04-20T23:50:35.493Z,102731.66
2019-04-20T23:53:06.690Z,102732.55
2019-04-20T23:55:16.992Z,102727.91
2019-04-20T23:57:50.504Z,102725.05
